createdAt,value
2019-06-01T00:00:54.746Z,101978.05
2019-06-01T00:01:59.700Z,101976.34
2019-06-01T00:03:05.452Z,101978.67
2019-06-01T00:04:10.390Z,101976.51
2019-06-01T00:05:16.127Z,101974.64
2019-06-01T00:06:21.357Z,101968.64
2019-06-01T00:07:26.974Z,101976.34
2019-06-01T00:08:32.026Z,101973.66
2019-06-01T00:09:38.911Z,101975.36
2019-06-01T00:10:45.121Z,101972.67
2019-06-01T00:11:50.840Z,101968.28
2019-06-01T00:12:56.244Z,101972.31
2019-06-01T00:14:02.049Z,101966.08
2019-06-01T00:15:08.211Z,101971.45
2019-06-01T00:16:14.051Z,101971.27
2019-06-01T00:17:19.008Z,101972.41
2019-06-01T00:18:24.523Z,101969.36
2019-06-01T00:19:29.486Z,101967.81
2019-06-01T00:20:35.474Z,101970.14
2019-06-01T00:21:41.181Z,101968.44
2019-06-01T00:22:47.510Z,101965.42
2019-06-01T00:23:52.974Z,101966.03
2019-06-01T00:24:58.471Z,101968.72
2019-06-01T00:26:03.778Z,101967.55
2019-06-01T00:27:09.714Z,101968.89
2019-06-01T00:28:14.932Z,101966.82
2019-06-01T00:29:20.579Z,101968.69
2019-06-01T00:30:27.380Z,101968.81
2019-06-01T00:31:32.952Z,101968.98
2019-06-01T00:32:37.989Z,101966.78
2019-06-01T00:33:45.321Z,101962.03
2019-06-01T00:34:50.415Z,101962.52
2019-06-01T00:35:55.964Z,101965.73
2019-06-01T00:37:01.021Z,101969.23
2019-06-01T00:38:06.941Z,101965.37
2019-06-01T00:39:15.071Z,101961.83
2019-06-01T00:40:21.282Z,101965.16
2019-06-01T00:41:26.343Z,101964.44
2019-06-01T00:42:31.900Z,101961.42
2019-06-01T00:43:36.969Z,101970.83
2019-06-01T00:44:44.213Z,101965.58
2019-06-01T00:45:50.531Z,101966.72
2019-06-01T00:46:56.441Z,101967.22
2019-06-01T00:48:01.517Z,101972.75
2019-06-01T00:49:07.303Z,101968.36
2019-06-01T00:50:12.661Z,101967.63
2019-06-01T00:51:18.214Z,101972.52
2019-06-01T00:52:23.255Z,101974.34
2019-06-01T00:53:28.966Z,101974.02
2019-06-01T00:54:34.078Z,101975.00
2019-06-01T00:55:39.688Z,101975.98
2019-06-01T00:56:49.593Z,101975.64
2019-06-01T00:57:55.360Z,101974.80
2019-06-01T00:59:00.858Z,101968.70
2019-06-01T01:00:06.845Z,101971.05
2019-06-01T01:01:12.476Z,101978.09
2019-06-01T01:02:18.207Z,101968.70
2019-06-01T01:03:23.207Z,101971.91
2019-06-01T01:04:28.921Z,101967.88
2019-06-01T01:05:33.968Z,101972.39
2019-06-01T01:06:39.587Z,101971.18
2019-06-01T01:07:44.789Z,101972.52
2019-06-01T01:08:50.951Z,101977.56
2019-06-01T01:09:56.046Z,101972.69
2019-06-01T01:11:01.943Z,101974.64
2019-06-01T01:12:07.090Z,101968.42
2019-06-01T01:13:15.711Z,101974.80
2019-06-01T01:14:20.718Z,101967.36
2019-06-01T01:15:26.407Z,101970.05
2019-06-01T01:16:32.218Z,101968.50
2019-06-01T01:17:37.836Z,101966.80
2019-06-01T01:18:43.096Z,101974.03
2019-06-01T01:19:49.693Z,101969.64
2019-06-01T01:20:56.149Z,101974.64
2019-06-01T01:22:01.847Z,101971.63
2019-06-01T01:23:07.454Z,101967.59
2019-06-01T01:24:13.090Z,101963.57
2019-06-01T01:25:18.249Z,101968.58
2019-06-01T01:26:23.911Z,101971.27
2019-06-01T01:27:28.966Z,101965.53
2019-06-01T01:28:34.591Z,101966.51
2019-06-01T01:29:39.584Z,101968.70
2019-06-01T01:31:01.693Z,101966.51
2019-06-01T01:31:51.828Z,101967.85
2019-06-01T01:32:59.206Z,101970.54
2019-06-01T01:34:04.869Z,101964.19
2019-06-01T01:35:10.789Z,101966.02
2019-06-01T01:36:16.049Z,101968.22
2019-06-01T01:37:21.773Z,101966.38
2019-06-01T01:38:26.892Z,101965.53
2019-06-01T01:39:32.424Z,101964.19
2019-06-01T01:40:37.450Z,101962.84
2019-06-01T01:41:43.117Z,101971.88
2019-06-01T01:42:48.795Z,101967.85
2019-06-01T01:43:56.592Z,101967.85
2019-06-01T01:45:01.974Z,101963.00
2019-06-01T01:46:07.678Z,101968.14
2019-06-01T01:47:14.427Z,101963.62
2019-06-01T01:48:20.739Z,101970.48
2019-06-01T01:49:25.979Z,101965.97
2019-06-01T01:50:33.190Z,101967.80
2019-06-01T01:51:38.156Z,101968.78
2019-06-01T01:52:43.794Z,101965.73
2019-06-01T01:53:50.576Z,101965.73
2019-06-01T01:54:56.841Z,101964.88
2019-06-01T01:56:02.025Z,101964.06
2019-06-01T01:57:07.569Z,101963.05
2019-06-01T01:58:12.681Z,101963.54
2019-06-01T01:59:18.315Z,101963.54
2019-06-01T02:00:44.439Z,101962.72
2019-06-01T02:01:50.423Z,101964.06
2019-06-01T02:02:55.868Z,101962.36
2019-06-01T02:04:03.220Z,101958.97
2019-06-01T02:05:10.107Z,101956.28
2019-06-01T02:06:15.757Z,101959.59
2019-06-01T02:07:20.713Z,101957.03
2019-06-01T02:08:26.604Z,101963.87
2019-06-01T02:09:32.174Z,101954.95
2019-06-01T02:10:38.547Z,101962.68
2019-06-01T02:11:43.605Z,101963.17
2019-06-01T02:12:49.173Z,101964.84
2019-06-01T02:13:54.131Z,101960.82
2019-06-01T02:14:59.801Z,101961.34
2019-06-01T02:16:04.916Z,101962.68
2019-06-01T02:17:11.627Z,101957.80
2019-06-01T02:18:16.856Z,101957.80
2019-06-01T02:19:22.538Z,101958.78
2019-06-01T02:20:27.597Z,101962.80
2019-06-01T02:21:33.520Z,101965.49
2019-06-01T02:22:38.566Z,101961.10
2019-06-01T02:23:44.377Z,101960.25
2019-06-01T02:24:49.389Z,101963.45
2019-06-01T02:25:56.950Z,101959.06
2019-06-01T02:27:03.327Z,101958.09
2019-06-01T02:28:09.054Z,101962.23
2019-06-01T02:29:14.135Z,101960.04
2019-06-01T02:30:20.079Z,101956.17
2019-06-01T02:31:40.888Z,101959.83
2019-06-01T02:32:32.786Z,101960.69
2019-06-01T02:33:37.728Z,101958.61
2019-06-01T02:34:43.290Z,101959.47
2019-06-01T02:35:48.370Z,101952.55
2019-06-01T02:36:54.402Z,101954.38
2019-06-01T02:38:00.315Z,101953.53
2019-06-01T02:39:08.397Z,101958.89
2019-06-01T02:40:13.870Z,101951.85
2019-06-01T02:41:19.643Z,101953.69
2019-06-01T02:42:24.873Z,101948.80
2019-06-01T02:43:30.538Z,101952.83
2019-06-01T02:44:35.535Z,101955.15
2019-06-01T02:45:41.443Z,101957.84
2019-06-01T02:46:46.434Z,101952.13
2019-06-01T02:47:52.030Z,101954.82
2019-06-01T02:48:57.451Z,101950.55
2019-06-01T02:50:04.475Z,101952.75
2019-06-01T02:51:09.824Z,101952.91
2019-06-01T02:52:15.344Z,101952.05
2019-06-01T02:53:20.279Z,101949.00
2019-06-01T02:54:25.844Z,101944.61
2019-06-01T02:55:30.918Z,101944.28
2019-06-01T02:56:36.450Z,101948.30
2019-06-01T02:57:41.491Z,101948.30
2019-06-01T02:58:49.362Z,101944.89
2019-06-01T02:59:54.307Z,101944.07
2019-06-01T03:01:26.052Z,101945.91
2019-06-01T03:02:31.446Z,101940.17
2019-06-01T03:03:37.140Z,101939.80
2019-06-01T03:04:42.265Z,101938.47
2019-06-01T03:05:49.320Z,101944.84
2019-06-01T03:06:55.885Z,101944.84
2019-06-01T03:08:01.884Z,101943.50
2019-06-01T03:09:09.316Z,101944.48
2019-06-01T03:10:15.097Z,101940.94
2019-06-01T03:11:22.248Z,101942.77
2019-06-01T03:12:30.529Z,101941.42
2019-06-01T03:13:37.382Z,101945.94
2019-06-01T03:14:45.054Z,101943.41
2019-06-01T03:15:52.077Z,101948.78
2019-06-01T03:17:01.916Z,101946.74
2019-06-01T03:18:08.583Z,101952.11
2019-06-01T03:19:17.344Z,101945.89
2019-06-01T03:20:22.462Z,101944.67
2019-06-01T03:21:31.684Z,101950.03
2019-06-01T03:22:39.698Z,101949.67
2019-06-01T03:23:46.973Z,101949.67
2019-06-01T03:24:54.971Z,101949.67
2019-06-01T03:26:04.203Z,101943.97
2019-06-01T03:27:13.149Z,101943.97
2019-06-01T03:28:21.721Z,101948.00
2019-06-01T03:29:29.988Z,101945.31
2019-06-01T03:30:45.190Z,101944.58
2019-06-01T03:32:24.165Z,101947.63
2019-06-01T03:33:14.187Z,101944.58
2019-06-01T03:34:19.798Z,101945.92
2019-06-01T03:35:25.406Z,101948.27
2019-06-01T03:36:30.431Z,101951.29
2019-06-01T03:37:36.121Z,101948.27
2019-06-01T03:38:41.655Z,101948.39
2019-06-01T03:39:47.260Z,101948.77
2019-06-01T03:40:52.364Z,101947.42
2019-06-01T03:41:57.949Z,101950.10
2019-06-01T03:43:04.294Z,101950.10
2019-06-01T03:44:09.915Z,101949.61
2019-06-01T03:45:15.017Z,101947.42
2019-06-01T03:46:20.614Z,101945.59
2019-06-01T03:47:26.159Z,101946.56
2019-06-01T03:48:31.741Z,101946.56
2019-06-01T03:49:36.763Z,101947.91
2019-06-01T03:50:42.379Z,101951.29
2019-06-01T03:51:47.652Z,101953.27
2019-06-01T03:52:53.480Z,101946.77
2019-06-01T03:53:58.527Z,101949.95
2019-06-01T03:55:04.436Z,101954.34
2019-06-01T03:56:09.526Z,101952.88
2019-06-01T03:57:15.388Z,101946.98
2019-06-01T03:58:20.592Z,101950.03
2019-06-01T03:59:26.526Z,101952.23
2019-06-01T04:00:31.738Z,101948.57
2019-06-01T04:01:37.582Z,101948.41
2019-06-01T04:02:42.523Z,101950.12
2019-06-01T04:03:48.198Z,101948.78
2019-06-01T04:04:53.393Z,101942.07
2019-06-01T04:05:59.007Z,101952.16
2019-06-01T04:07:04.149Z,101955.20
2019-06-01T04:08:09.953Z,101954.36
2019-06-01T04:09:15.231Z,101956.91
2019-06-01T04:10:20.768Z,101959.45
2019-06-01T04:11:25.714Z,101960.30
2019-06-01T04:12:31.242Z,101961.52
2019-06-01T04:13:36.251Z,101957.33
2019-06-01T04:14:41.839Z,101960.88
2019-06-01T04:15:46.798Z,101962.22
2019-06-01T04:16:52.358Z,101957.21
2019-06-01T04:17:57.562Z,101960.72
2019-06-01T04:19:03.773Z,101967.79
2019-06-01T04:20:10.093Z,101966.81
2019-06-01T04:21:15.895Z,101968.16
2019-06-01T04:22:20.843Z,101970.19
2019-06-01T04:23:26.670Z,101971.53
2019-06-01T04:24:31.638Z,101972.27
2019-06-01T04:25:37.257Z,101966.05
2019-06-01T04:26:42.234Z,101967.72
2019-06-01T04:27:47.930Z,101971.62
2019-06-01T04:28:52.876Z,101978.70
2019-06-01T04:29:58.423Z,101972.47
2019-06-01T04:31:04.564Z,101976.70
2019-06-01T04:32:10.942Z,101976.70
2019-06-01T04:33:16.263Z,101974.72
2019-06-01T04:34:22.040Z,101982.65
2019-06-01T04:35:27.150Z,101981.67
2019-06-01T04:36:32.687Z,101981.52
2019-06-01T04:37:37.781Z,101979.20
2019-06-01T04:38:43.468Z,101978.22
2019-06-01T04:39:48.763Z,101975.53
2019-06-01T04:40:54.323Z,101977.20
2019-06-01T04:42:00.666Z,101981.11
2019-06-01T04:43:07.787Z,101976.23
2019-06-01T04:44:14.212Z,101976.59
2019-06-01T04:45:20.443Z,101978.27
2019-06-01T04:46:25.403Z,101979.48
2019-06-01T04:47:31.123Z,101969.59
2019-06-01T04:48:36.056Z,101976.06
2019-06-01T04:49:41.674Z,101978.59
2019-06-01T04:50:46.721Z,101976.76
2019-06-01T04:51:52.535Z,101972.94
2019-06-01T04:52:58.067Z,101971.95
2019-06-01T04:54:04.828Z,101971.83
2019-06-01T04:55:11.132Z,101973.87
2019-06-01T04:56:17.044Z,101976.92
2019-06-01T04:57:21.994Z,101979.32
2019-06-01T04:58:27.612Z,101979.69
2019-06-01T04:59:32.843Z,101980.17
2019-06-01T05:00:38.524Z,101971.95
2019-06-01T05:01:43.553Z,101970.13
2019-06-01T05:02:56.581Z,101972.69
2019-06-01T05:03:56.433Z,101971.67
2019-06-01T05:05:02.212Z,101974.72
2019-06-01T05:06:07.307Z,101969.72
2019-06-01T05:07:13.464Z,101967.88
2019-06-01T05:08:18.568Z,101967.36
2019-06-01T05:09:24.205Z,101978.95
2019-06-01T05:10:29.409Z,101970.41
2019-06-01T05:11:34.936Z,101968.70
2019-06-01T05:12:40.194Z,101967.72
2019-06-01T05:13:46.210Z,101969.92
2019-06-01T05:14:51.160Z,101962.06
2019-06-01T05:15:56.831Z,101962.84
2019-06-01T05:17:01.804Z,101964.12
2019-06-01T05:18:07.974Z,101962.53
2019-06-01T05:19:14.308Z,101960.48
2019-06-01T05:20:20.018Z,101960.62
2019-06-01T05:21:25.047Z,101960.38
2019-06-01T05:22:30.557Z,101956.11
2019-06-01T05:23:35.797Z,101953.06
2019-06-01T05:24:41.346Z,101955.75
2019-06-01T05:25:46.685Z,101961.09
2019-06-01T05:26:52.476Z,101952.98
2019-06-01T05:27:57.419Z,101961.38
2019-06-01T05:29:03.009Z,101956.94
2019-06-01T05:30:09.454Z,101966.16
2019-06-01T05:31:23.464Z,101966.96
2019-06-01T05:32:22.016Z,101967.23
2019-06-01T05:33:36.858Z,101959.09
2019-06-01T05:34:35.037Z,101961.06
2019-06-01T05:35:40.657Z,101963.69
2019-06-01T05:36:45.685Z,101969.17
2019-06-01T05:37:51.509Z,101967.89
2019-06-01T05:38:56.448Z,101955.50
2019-06-01T05:40:02.213Z,101958.91
2019-06-01T05:41:09.958Z,101959.00
2019-06-01T05:42:14.833Z,101958.38
2019-06-01T05:43:21.296Z,101960.08
2019-06-01T05:44:27.035Z,101957.43
2019-06-01T05:45:32.116Z,101958.81
2019-06-01T05:46:37.619Z,101956.48
2019-06-01T05:47:42.588Z,101953.68
2019-06-01T05:48:48.198Z,101943.78
2019-06-01T05:49:53.671Z,101944.31
2019-06-01T05:50:59.229Z,101950.59
2019-06-01T05:52:04.347Z,101952.97
2019-06-01T05:53:10.449Z,101954.85
2019-06-01T05:54:16.638Z,101954.67
2019-06-01T05:55:23.081Z,101955.37
2019-06-01T05:56:28.121Z,101952.69
2019-06-01T05:57:33.961Z,101950.84
2019-06-01T05:58:38.899Z,101955.03
2019-06-01T05:59:44.499Z,101958.72
2019-06-01T06:00:49.505Z,101954.99
2019-06-01T06:01:55.291Z,101955.81
2019-06-01T06:03:00.603Z,101958.01
2019-06-01T06:04:06.277Z,101950.59
2019-06-01T06:05:12.535Z,101949.06
2019-06-01T06:06:18.248Z,101951.91
2019-06-01T06:07:23.543Z,101952.91
2019-06-01T06:08:29.060Z,101950.70
2019-06-01T06:09:34.041Z,101948.86
2019-06-01T06:10:39.615Z,101949.35
2019-06-01T06:11:44.716Z,101947.19
2019-06-01T06:12:50.505Z,101950.23
2019-06-01T06:13:55.462Z,101946.88
2019-06-01T06:15:01.212Z,101947.41
2019-06-01T06:16:06.293Z,101949.14
2019-06-01T06:17:14.530Z,101945.44
2019-06-01T06:18:19.819Z,101947.32
2019-06-01T06:19:25.717Z,101944.30
2019-06-01T06:20:30.673Z,101948.87
2019-06-01T06:21:36.265Z,101946.35
2019-06-01T06:22:41.470Z,101946.06
2019-06-01T06:23:47.143Z,101948.76
2019-06-01T06:24:52.087Z,101948.64
2019-06-01T06:25:57.938Z,101948.64
2019-06-01T06:27:02.974Z,101940.39
2019-06-01T06:28:08.686Z,101943.12
2019-06-01T06:29:14.734Z,101950.53
2019-06-01T06:30:21.024Z,101952.55
2019-06-01T06:31:26.048Z,101957.98
2019-06-01T06:32:31.877Z,101961.38
2019-06-01T06:33:37.113Z,101962.05
2019-06-01T06:34:42.737Z,101965.92
2019-06-01T06:35:47.698Z,101963.42
2019-06-01T06:36:53.623Z,101967.30
2019-06-01T06:37:58.587Z,101964.16
2019-06-01T06:39:04.820Z,101966.88
2019-06-01T06:40:10.242Z,101971.09
2019-06-01T06:41:16.097Z,101969.23
2019-06-01T06:42:22.343Z,101969.59
2019-06-01T06:43:32.922Z,101970.11
2019-06-01T06:44:34.927Z,101963.20
2019-06-01T06:45:40.520Z,101966.77
2019-06-01T06:46:45.462Z,101970.01
2019-06-01T06:47:51.097Z,101965.29
2019-06-01T06:48:56.120Z,101969.67
2019-06-01T06:50:01.918Z,101969.34
2019-06-01T06:51:06.972Z,101966.66
2019-06-01T06:52:12.558Z,101966.67
2019-06-01T06:53:29.836Z,101966.69
2019-06-01T06:54:26.003Z,101964.50
2019-06-01T06:55:31.161Z,101964.48
2019-06-01T06:56:36.684Z,101962.63
2019-06-01T06:57:41.664Z,101964.15
2019-06-01T06:58:47.204Z,101964.15
2019-06-01T06:59:52.142Z,101962.33
2019-06-01T07:00:57.739Z,101965.70
2019-06-01T07:02:02.832Z,101966.70
2019-06-01T07:03:08.380Z,101966.05
2019-06-01T07:04:13.496Z,101959.30
2019-06-01T07:05:19.385Z,101962.84
2019-06-01T07:06:25.590Z,101963.34
2019-06-01T07:07:31.324Z,101965.70
2019-06-01T07:08:36.528Z,101965.70
2019-06-01T07:09:42.195Z,101962.85
2019-06-01T07:10:47.266Z,101969.11
2019-06-01T07:11:52.869Z,101962.66
2019-06-01T07:12:58.312Z,101969.43
2019-06-01T07:14:03.990Z,101960.97
2019-06-01T07:15:09.218Z,101964.02
2019-06-01T07:16:15.084Z,101965.89
2019-06-01T07:17:20.026Z,101958.63
2019-06-01T07:18:25.837Z,101967.90
2019-06-01T07:19:31.881Z,101962.14
2019-06-01T07:20:37.840Z,101958.94
2019-06-01T07:21:42.850Z,101966.73
2019-06-01T07:22:48.667Z,101966.73
2019-06-01T07:23:53.615Z,101961.64
2019-06-01T07:24:59.223Z,101959.63
2019-06-01T07:26:04.639Z,101960.64
2019-06-01T07:27:10.155Z,101957.24
2019-06-01T07:28:15.172Z,101959.95
2019-06-01T07:29:22.095Z,101963.31
2019-06-01T07:30:28.329Z,101966.72
2019-06-01T07:31:34.274Z,101954.70
2019-06-01T07:32:39.386Z,101956.55
2019-06-01T07:33:45.224Z,101957.56
2019-06-01T07:34:50.378Z,101963.98
2019-06-01T07:35:56.009Z,101959.58
2019-06-01T07:37:00.971Z,101954.50
2019-06-01T07:38:06.640Z,101952.96
2019-06-01T07:39:11.853Z,101952.65
2019-06-01T07:40:20.840Z,101949.28
2019-06-01T07:41:26.687Z,101948.23
2019-06-01T07:42:33.072Z,101949.44
2019-06-01T07:43:38.341Z,101950.94
2019-06-01T07:44:44.139Z,101956.86
2019-06-01T07:45:49.663Z,101950.23
2019-06-01T07:46:55.233Z,101955.50
2019-06-01T07:48:00.266Z,101949.08
2019-06-01T07:49:05.915Z,101948.37
2019-06-01T07:50:11.449Z,101946.02
2019-06-01T07:51:17.080Z,101949.38
2019-06-01T07:52:22.466Z,101949.72
2019-06-01T07:53:29.519Z,101950.23
2019-06-01T07:54:34.911Z,101948.18
2019-06-01T07:55:40.474Z,101948.02
2019-06-01T07:56:45.852Z,101951.89
2019-06-01T07:57:51.481Z,101946.31
2019-06-01T07:58:56.733Z,101958.14
2019-06-01T08:00:02.450Z,101951.72
2019-06-01T08:01:07.523Z,101952.88
2019-06-01T08:02:13.612Z,101953.57
2019-06-01T08:03:18.851Z,101952.03
2019-06-01T08:04:26.293Z,101959.45
2019-06-01T08:05:32.188Z,101956.42
2019-06-01T08:06:44.457Z,101953.02
2019-06-01T08:07:44.793Z,101946.59
2019-06-01T08:08:50.621Z,101944.70
2019-06-01T08:09:55.915Z,101949.95
2019-06-01T08:11:01.510Z,101948.94
2019-06-01T08:12:06.766Z,101950.79
2019-06-01T08:13:12.355Z,101957.71
2019-06-01T08:14:17.741Z,101951.59
2019-06-01T08:15:23.675Z,101949.23
2019-06-01T08:16:29.949Z,101952.59
2019-06-01T08:17:35.863Z,101951.58
2019-06-01T08:18:40.807Z,101950.23
2019-06-01T08:19:46.814Z,101954.12
2019-06-01T08:20:51.842Z,101943.75
2019-06-01T08:21:57.864Z,101951.21
2019-06-01T08:23:02.910Z,101948.84
2019-06-01T08:24:08.579Z,101948.14
2019-06-01T08:25:13.614Z,101941.72
2019-06-01T08:26:20.126Z,101949.17
2019-06-01T08:27:26.508Z,101940.54
2019-06-01T08:28:32.757Z,101946.45
2019-06-01T08:29:38.381Z,101941.34
2019-06-01T08:30:44.322Z,101941.52
2019-06-01T08:31:49.324Z,101938.80
2019-06-01T08:32:55.531Z,101938.27
2019-06-01T08:34:01.168Z,101943.69
2019-06-01T08:35:09.544Z,101942.17
2019-06-01T08:36:16.790Z,101937.75
2019-06-01T08:37:23.497Z,101939.44
2019-06-01T08:38:29.634Z,101934.51
2019-06-01T08:39:35.633Z,101936.86
2019-06-01T08:40:40.837Z,101937.51
2019-06-01T08:41:46.367Z,101935.48
2019-06-01T08:42:51.481Z,101935.13
2019-06-01T08:43:57.396Z,101935.77
2019-06-01T08:45:02.583Z,101940.66
2019-06-01T08:46:08.544Z,101944.53
2019-06-01T08:47:13.570Z,101934.87
2019-06-01T08:48:19.266Z,101936.03
2019-06-01T08:49:25.789Z,101937.23
2019-06-01T08:50:31.916Z,101932.29
2019-06-01T08:51:37.071Z,101930.93
2019-06-01T08:52:42.923Z,101931.58
2019-06-01T08:53:48.084Z,101933.59
2019-06-01T08:54:53.903Z,101931.89
2019-06-01T08:55:58.993Z,101935.59
2019-06-01T08:57:04.723Z,101937.60
2019-06-01T08:58:09.656Z,101933.88
2019-06-01T08:59:15.275Z,101929.09
2019-06-01T09:00:20.500Z,101928.39
2019-06-01T09:01:26.532Z,101932.44
2019-06-01T09:02:32.795Z,101928.50
2019-06-01T09:03:45.542Z,101928.70
2019-06-01T09:04:45.422Z,101922.91
2019-06-01T09:05:50.998Z,101925.59
2019-06-01T09:06:55.922Z,101927.23
2019-06-01T09:08:01.510Z,101925.84
2019-06-01T09:09:11.425Z,101920.35
2019-06-01T09:10:15.390Z,101928.80
2019-06-01T09:11:20.660Z,101922.83
2019-06-01T09:12:27.246Z,101922.12
2019-06-01T09:13:33.295Z,101912.41
2019-06-01T09:14:38.846Z,101917.16
2019-06-01T09:15:43.834Z,101916.14
2019-06-01T09:16:49.626Z,101917.80
2019-06-01T09:17:54.675Z,101916.14
2019-06-01T09:19:00.365Z,101919.50
2019-06-01T09:20:05.852Z,101918.79
2019-06-01T09:21:11.530Z,101915.39
2019-06-01T09:22:16.723Z,101916.75
2019-06-01T09:23:22.613Z,101920.48
2019-06-01T09:24:27.754Z,101914.72
2019-06-01T09:25:33.847Z,101912.00
2019-06-01T09:26:38.765Z,101906.91
2019-06-01T09:27:44.237Z,101910.27
2019-06-01T09:28:49.299Z,101908.41
2019-06-01T09:29:55.058Z,101901.45
2019-06-01T09:31:00.286Z,101907.72
2019-06-01T09:32:10.469Z,101912.61
2019-06-01T09:33:13.055Z,101909.59
2019-06-01T09:34:18.645Z,101909.59
2019-06-01T09:35:40.766Z,101909.08
2019-06-01T09:36:32.257Z,101906.36
2019-06-01T09:37:37.454Z,101910.44
2019-06-01T09:38:43.299Z,101909.59
2019-06-01T09:39:48.271Z,101910.95
2019-06-01T09:40:53.902Z,101902.80
2019-06-01T09:41:58.899Z,101903.45
2019-06-01T09:43:04.485Z,101909.34
2019-06-01T09:44:09.402Z,101903.55
2019-06-01T09:45:15.063Z,101910.46
2019-06-01T09:46:20.203Z,101905.20
2019-06-01T09:47:27.079Z,101908.69
2019-06-01T09:48:33.504Z,101900.67
2019-06-01T09:49:39.169Z,101896.97
2019-06-01T09:50:44.405Z,101902.57
2019-06-01T09:51:49.900Z,101909.36
2019-06-01T09:52:55.085Z,101905.29
2019-06-01T09:54:00.783Z,101901.22
2019-06-01T09:55:06.141Z,101906.47
2019-06-01T09:56:11.761Z,101905.96
2019-06-01T09:57:17.094Z,101907.15
2019-06-01T09:58:22.912Z,101904.22
2019-06-01T09:59:28.065Z,101898.75
2019-06-01T10:00:34.826Z,101902.78
2019-06-01T10:01:40.047Z,101901.05
2019-06-01T10:02:45.862Z,101899.30
2019-06-01T10:03:51.065Z,101907.07
2019-06-01T10:04:56.920Z,101903.97
2019-06-01T10:06:02.538Z,101903.77
2019-06-01T10:07:08.431Z,101897.44
2019-06-01T10:08:13.457Z,101902.70
2019-06-01T10:09:19.133Z,101907.28
2019-06-01T10:10:24.310Z,101899.13
2019-06-01T10:11:29.957Z,101903.59
2019-06-01T10:12:36.055Z,101900.23
2019-06-01T10:13:42.591Z,101906.05
2019-06-01T10:14:47.948Z,101901.69
2019-06-01T10:15:53.461Z,101902.78
2019-06-01T10:16:58.699Z,101900.95
2019-06-01T10:18:04.285Z,101902.36
2019-06-01T10:19:09.604Z,101900.36
2019-06-01T10:20:16.066Z,101890.69
2019-06-01T10:21:21.064Z,101895.78
2019-06-01T10:22:26.654Z,101898.16
2019-06-01T10:23:32.397Z,101897.14
2019-06-01T10:24:39.203Z,101889.50
2019-06-01T10:25:44.530Z,101888.45
2019-06-01T10:26:50.483Z,101888.31
2019-06-01T10:27:55.524Z,101891.36
2019-06-01T10:29:01.309Z,101890.14
2019-06-01T10:30:06.968Z,101887.22
2019-06-01T10:31:12.488Z,101890.61
2019-06-01T10:32:17.511Z,101895.14
2019-06-01T10:33:23.246Z,101892.22
2019-06-01T10:34:28.240Z,101886.61
2019-06-01T10:35:35.035Z,101887.13
2019-06-01T10:36:40.295Z,101883.39
2019-06-01T10:37:45.857Z,101886.95
2019-06-01T10:38:51.167Z,101883.69
2019-06-01T10:39:56.641Z,101884.92
2019-06-01T10:41:01.815Z,101881.19
2019-06-01T10:42:07.406Z,101881.69
2019-06-01T10:43:12.490Z,101878.98
2019-06-01T10:44:18.108Z,101881.19
2019-06-01T10:45:23.271Z,101881.19
2019-06-01T10:46:28.854Z,101877.95
2019-06-01T10:47:35.823Z,101874.19
2019-06-01T10:48:42.203Z,101872.14
2019-06-01T10:49:47.469Z,101878.22
2019-06-01T10:50:52.996Z,101880.88
2019-06-01T10:51:57.926Z,101872.35
2019-06-01T10:53:03.624Z,101878.03
2019-06-01T10:54:08.713Z,101879.86
2019-06-01T10:55:14.376Z,101875.94
2019-06-01T10:56:19.313Z,101876.91
2019-06-01T10:57:24.914Z,101875.17
2019-06-01T10:58:29.840Z,101873.60
2019-06-01T10:59:36.295Z,101874.11
2019-06-01T11:00:46.721Z,101878.02
2019-06-01T11:01:48.620Z,101875.93
2019-06-01T11:02:53.541Z,101875.03
2019-06-01T11:03:59.394Z,101871.93
2019-06-01T11:05:05.068Z,101870.06
2019-06-01T11:06:11.181Z,101870.73
2019-06-01T11:07:16.185Z,101878.34
2019-06-01T11:08:21.931Z,101870.52
2019-06-01T11:09:26.867Z,101867.62
2019-06-01T11:10:32.701Z,101868.44
2019-06-01T11:11:38.751Z,101859.64
2019-06-01T11:12:44.584Z,101856.92
2019-06-01T11:13:49.815Z,101861.34
2019-06-01T11:14:55.928Z,101854.84
2019-06-01T11:16:00.848Z,101852.97
2019-06-01T11:17:06.614Z,101853.30
2019-06-01T11:18:11.796Z,101853.42
2019-06-01T11:19:17.326Z,101853.07
2019-06-01T11:20:22.390Z,101849.78
2019-06-01T11:21:28.104Z,101849.39
2019-06-01T11:22:33.440Z,101854.05
2019-06-01T11:23:43.301Z,101847.37
2019-06-01T11:24:46.328Z,101844.92
2019-06-01T11:25:51.939Z,101846.41
2019-06-01T11:26:57.096Z,101848.21
2019-06-01T11:28:02.777Z,101843.41
2019-06-01T11:29:07.770Z,101843.41
2019-06-01T11:30:13.453Z,101847.81
2019-06-01T11:31:18.444Z,101845.61
2019-06-01T11:32:24.288Z,101842.05
2019-06-01T11:33:29.222Z,101838.30
2019-06-01T11:34:36.424Z,101841.34
2019-06-01T11:35:41.566Z,101839.14
2019-06-01T11:37:04.414Z,101832.12
2019-06-01T11:37:53.930Z,101835.19
2019-06-01T11:38:59.948Z,101835.84
2019-06-01T11:40:05.925Z,101836.15
2019-06-01T11:41:11.462Z,101832.40
2019-06-01T11:42:19.753Z,101829.86
2019-06-01T11:43:23.844Z,101837.44
2019-06-01T11:44:28.970Z,101834.39
2019-06-01T11:45:34.906Z,101833.03
2019-06-01T11:46:41.086Z,101841.52
2019-06-01T11:47:46.626Z,101835.05
2019-06-01T11:48:51.909Z,101830.76
2019-06-01T11:49:57.658Z,101836.72
2019-06-01T11:51:02.723Z,101832.63
2019-06-01T11:52:08.539Z,101827.20
2019-06-01T11:53:13.792Z,101826.89
2019-06-01T11:54:19.318Z,101824.36
2019-06-01T11:55:24.308Z,101823.52
2019-06-01T11:56:29.845Z,101817.55
2019-06-01T11:57:35.237Z,101820.09
2019-06-01T11:58:41.397Z,101817.67
2019-06-01T11:59:46.362Z,101817.16
2019-06-01T12:00:51.962Z,101811.02
2019-06-01T12:01:56.966Z,101812.38
2019-06-01T12:03:02.579Z,101816.25
2019-06-01T12:04:07.794Z,101808.09
2019-06-01T12:05:14.716Z,101807.39
2019-06-01T12:06:19.776Z,101817.32
2019-06-01T12:07:25.445Z,101804.56
2019-06-01T12:08:33.989Z,101797.25
2019-06-01T12:09:37.772Z,101797.25
2019-06-01T12:10:43.217Z,101806.89
2019-06-01T12:11:48.822Z,101802.50
2019-06-01T12:12:53.866Z,101802.29
2019-06-01T12:13:59.498Z,101802.29
2019-06-01T12:15:04.951Z,101806.70
2019-06-01T12:16:10.663Z,101803.47
2019-06-01T12:17:15.729Z,101798.32
2019-06-01T12:18:21.536Z,101795.94
2019-06-01T12:19:26.548Z,101790.83
2019-06-01T12:20:32.273Z,101797.92
2019-06-01T12:21:37.220Z,101794.69
2019-06-01T12:22:43.022Z,101795.05
2019-06-01T12:23:48.263Z,101797.88
2019-06-01T12:24:53.842Z,101799.06
2019-06-01T12:25:59.247Z,101793.40
2019-06-01T12:27:05.006Z,101788.69
2019-06-01T12:28:09.944Z,101792.37
2019-06-01T12:29:15.643Z,101783.03
2019-06-01T12:30:21.029Z,101789.02
2019-06-01T12:31:26.855Z,101781.88